Time,TemperatureF,DewpointF,PressureIn,WindDirection,WindDirectionDegrees,WindSpeedMPH,WindSpeedGustMPH,Humidity,HourlyPrecipIn,Conditions,Clouds,dailyrainin,SoftwareType,DateUTC
2013-01-22 00:01:00,49.9,-6.6,30.03,West,277,4.0,6.0,9,0.00,,,0.00,LWC V2.11 B50,2013-01-22 07:01:00,
2013-01-22 00:06:00,49.6,-6.9,30.03,NW,316,5.0,9.0,9,0.00,,,0.00,LWC V2.11 B50,2013-01-22 07:06:00,
2013-01-22 00:11:00,49.9,-6.6,30.03,North,4,3.0,4.0,9,0.00,,,0.00,LWC V2.11 B50,2013-01-22 07:11:00,
2013-01-22 00:16:00,50.2,-6.4,30.01,NNE,13,2.0,3.0,9,0.00,,,0.00,LWC V2.11 B50,2013-01-22 07:16:00,
2013-01-22 00:21:00,50.4,-8.7,30.01,NW,311,1.0,2.0,8,0.00,,,0.00,LWC V2.11 B50,2013-01-22 07:21:00,
2013-01-22 00:26:00,50.2,-6.4,30.01,SW,226,8.0,8.0,9,0.00,,,0.00,LWC V2.11 B50,2013-01-22 07:26:00,
2013-01-22 00:31:00,49.2,-5.0,30.00,SSE,167,1.0,2.0,10,0.00,,,0.00,LWC V2.11 B50,2013-01-22 07:31:00,
2013-01-22 00:36:00,48.3,-7.9,30.00,North,0,5.0,5.0,9,0.00,,,0.00,LWC V2.11 B50,2013-01-22 07:36:00,
2013-01-22 00:41:00,49.4,-9.4,30.00,North,11,5.0,10.0,8,0.00,,,0.00,LWC V2.11 B50,2013-01-22 07:41:00,
2013-01-22 00:46:00,50.1,-6.5,30.01,SSE,150,5.0,8.0,9,0.00,,,0.00,LWC V2.11 B50,2013-01-22 07:46:00,
2013-01-22 00:51:00,49.5,-2.8,30.01,SSE,148,10.0,11.0,11,0.00,,,0.00,LWC V2.11 B50,2013-01-22 07:51:00,
2013-01-22 00:56:00,48.5,-5.5,30.01,SE,130,10.0,11.0,10,0.00,,,0.00,LWC V2.11 B50,2013-01-22 07:56:00,
2013-01-22 01:01:00,47.9,-6.0,30.01,East,99,11.0,11.0,10,0.00,,,0.00,LWC V2.11 B50,2013-01-22 08:01:00,
2013-01-22 01:06:00,48.5,-10.1,30.01,NNE,13,3.0,12.0,8,0.00,,,0.00,LWC V2.11 B50,2013-01-22 08:06:00,
2013-01-22 01:11:00,49.2,-7.2,30.01,SE,144,6.0,8.0,9,0.00,,,0.00,LWC V2.11 B50,2013-01-22 08:11:00,
2013-01-22 01:16:00,49.1,-5.1,29.95,SE,138,6.0,14.0,10,0.00,,,0.00,LWC V2.11 B50,2013-01-22 08:16:00,
2013-01-22 01:21:00,48.6,-5.5,29.95,NE,52,7.0,13.0,10,0.00,,,0.00,LWC V2.11 B50,2013-01-22 08:21:00,
2013-01-22 01:26:00,49.2,-5.0,29.95,SW,220,3.0,8.0,10,0.00,,,0.00,LWC V2.11 B50,2013-01-22 08:26:00,
2013-01-22 01:31:00,48.2,-5.8,29.96,NNW,340,0.0,6.0,10,0.00,,,0.00,LWC V2.11 B50,2013-01-22 08:31:00,
2013-01-22 01:36:00,47.1,-2.9,29.96,South,179,6.0,8.0,12,0.00,,,0.00,LWC V2.11 B50,2013-01-22 08:36:00,
2013-01-22 01:41:00,46.4,-7.2,29.96,West,280,2.0,7.0,10,0.00,,,0.00,LWC V2.11 B50,2013-01-22 08:41:00,
2013-01-22 01:46:00,46.8,-6.9,29.97,SSW,205,14.0,16.0,10,0.00,,,0.00,LWC V2.11 B50,2013-01-22 08:46:00,
2013-01-22 01:51:00,47.7,-8.3,29.97,West,265,12.0,24.0,9,0.00,,,0.00,LWC V2.11 B50,2013-01-22 08:51:00,
2013-01-22 01:56:00,49.4,-9.4,29.97,WSW,256,5.0,14.0,8,0.00,,,0.00,LWC V2.11 B50,2013-01-22 08:56:00,
2013-01-22 02:01:00,49.9,-6.6,29.96,WNW,287,6.0,14.0,9,0.00,,,0.00,LWC V2.11 B50,2013-01-22 09:01:00,
2013-01-22 02:06:00,49.9,-6.6,29.96,SW,233,8.0,16.0,9,0.00,,,0.00,LWC V2.11 B50,2013-01-22 09:06:00,
2013-01-22 02:11:00,50.1,-6.5,29.96,SW,216,13.0,20.0,9,0.00,,,0.00,LWC V2.11 B50,2013-01-22 09:11:00,
2013-01-22 02:16:00,50.1,-6.5,29.94,South,176,12.0,12.0,9,0.00,,,0.00,LWC V2.11 B50,2013-01-22 09:16:00,
2013-01-22 02:21:00,50.8,-11.1,29.94,NNE,13,1.0,7.0,7,0.00,,,0.00,LWC V2.11 B50,2013-01-22 09:21:00,
2013-01-22 02:26:00,51.1,-8.1,29.94,East,95,2.0,7.0,8,0.00,,,0.00,LWC V2.11 B50,2013-01-22 09:26:00,
2013-01-22 02:31:00,51.0,-8.2,29.92,NE,56,2.0,7.0,8,0.00,,,0.00,LWC V2.11 B50,2013-01-22 09:31:00,
2013-01-22 02:36:00,51.6,-10.5,29.92,NNE,31,5.0,8.0,7,0.00,,,0.00,LWC V2.11 B50,2013-01-22 09:36:00,
2013-01-22 02:41:00,52.2,-10.0,29.92,North,3,5.0,16.0,7,0.00,,,0.00,LWC V2.11 B50,2013-01-22 09:41:00,
2013-01-22 02:46:00,52.3,-9.9,29.92,North,359,7.0,8.0,7,0.00,,,0.00,LWC V2.11 B50,2013-01-22 09:46:00,
2013-01-22 02:51:00,52.3,-9.9,29.92,NE,56,3.0,13.0,7,0.00,,,0.00,LWC V2.11 B50,2013-01-22 09:51:00,
2013-01-22 02:56:00,52.8,-9.6,29.92,NNW,337,11.0,12.0,7,0.00,,,0.00,LWC V2.11 B50,2013-01-22 09:56:00,
2013-01-22 03:01:00,53.1,-9.4,29.91,NNE,20,5.0,13.0,7,0.00,,,0.00,LWC V2.11 B50,2013-01-22 10:01:00,
2013-01-22 03:06:00,52.9,-6.8,29.91,NNE,28,6.0,6.0,8,0.00,,,0.00,LWC V2.11 B50,2013-01-22 10:06:00,
2013-01-22 03:11:00,52.5,-9.8,29.91,NNE,28,7.0,11.0,7,0.00,,,0.00,LWC V2.11 B50,2013-01-22 10:11:00,
2013-01-22 03:16:00,52.5,-7.1,29.94,NNE,25,2.0,6.0,8,0.00,,,0.00,LWC V2.11 B50,2013-01-22 10:16:00,
2013-01-22 03:21:00,52.3,-7.2,29.94,North,354,7.0,10.0,8,0.00,,,0.00,LWC V2.11 B50,2013-01-22 10:21:00,
2013-01-22 03:26:00,52.3,-9.9,29.94,North,353,14.0,20.0,7,0.00,,,0.00,LWC V2.11 B50,2013-01-22 10:26:00,
2013-01-22 03:31:00,52.6,-9.7,29.92,NW,316,4.0,6.0,7,0.00,,,0.00,LWC V2.11 B50,2013-01-22 10:31:00,
2013-01-22 03:36:00,52.2,-7.3,29.92,WNW,282,10.0,14.0,8,0.00,,,0.00,LWC V2.11 B50,2013-01-22 10:36:00,
2013-01-22 03:41:00,51.4,-7.9,29.92,WNW,285,13.0,16.0,8,0.00,,,0.00,LWC V2.11 B50,2013-01-22 10:41:00,
2013-01-22 03:46:00,50.7,-8.4,29.93,WNW,284,14.0,16.0,8,0.00,,,0.00,LWC V2.11 B50,2013-01-22 10:46:00,
2013-01-22 03:51:00,50.5,-8.6,29.93,NW,326,7.0,16.0,8,0.00,,,0.00,LWC V2.11 B50,2013-01-22 10:51:00,
2013-01-22 03:56:00,50.5,-8.6,29.93,WSW,258,13.0,17.0,8,0.00,,,0.00,LWC V2.11 B50,2013-01-22 10:56:00,
2013-01-22 04:01:00,50.5,-8.6,29.93,NW,305,8.0,14.0,8,0.00,,,0.00,LWC V2.11 B50,2013-01-22 11:01:00,
2013-01-22 04:06:00,50.2,-8.8,29.93,NW,309,3.0,8.0,8,0.00,,,0.00,LWC V2.11 B50,2013-01-22 11:06:00,
2013-01-22 04:11:00,50.1,-8.9,29.93,NW,323,3.0,10.0,8,0.00,,,0.00,LWC V2.11 B50,2013-01-22 11:11:00,
2013-01-22 04:16:00,50.1,-8.9,29.94,North,357,3.0,5.0,8,0.00,,,0.00,LWC V2.11 B50,2013-01-22 11:16:00,
2013-01-22 04:21:00,49.9,-9.0,29.94,NW,323,1.0,5.0,8,0.00,,,0.00,LWC V2.11 B50,2013-01-22 11:21:00,
2013-01-22 04:31:00,49.2,-7.2,29.94,NNW,343,3.0,4.0,9,0.00,,,0.00,LWC V2.11 B50,2013-01-22 11:31:00,
2013-01-22 04:36:00,48.5,-7.7,29.94,North,352,1.0,1.0,9,0.00,,,0.00,LWC V2.11 B50,2013-01-22 11:36:00,
2013-01-22 04:41:00,47.9,-8.2,29.94,NW,326,3.0,8.0,9,0.00,,,0.00,LWC V2.11 B50,2013-01-22 11:41:00,
2013-01-22 04:46:00,48.0,-8.1,29.96,NNW,335,5.0,6.0,9,0.00,,,0.00,LWC V2.11 B50,2013-01-22 11:46:00,
2013-01-22 05:01:00,49.4,-7.0,29.97,NW,308,5.0,19.0,9,0.00,,,0.00,LWC V2.11 B50,2013-01-22 12:01:00,
2013-01-22 05:06:00,49.8,-6.7,29.97,NW,318,10.0,19.0,9,0.00,,,0.00,LWC V2.11 B50,2013-01-22 12:06:00,
2013-01-22 05:16:00,40.2,8.1,30.03,NNE,25,3.0,9.0,26,0.00,,,0.00,LWC V2.11 B50,2013-01-22 12:16:00,
2013-01-22 05:26:00,38.0,2.6,30.03,NNE,27,6.0,7.0,22,0.00,,,0.00,LWC V2.11 B50,2013-01-22 12:26:00,
2013-01-22 05:31:00,39.1,-0.8,30.06,NW,315,2.0,5.0,18,0.00,,,0.00,LWC V2.11 B50,2013-01-22 12:31:00,
2013-01-22 05:36:00,40.8,-4.7,30.06,WNW,282,2.0,14.0,14,0.00,,,0.00,LWC V2.11 B50,2013-01-22 12:36:00,
2013-01-22 05:46:00,47.0,-8.9,30.03,NW,323,7.0,20.0,9,0.00,,,0.00,LWC V2.11 B50,2013-01-22 12:46:00,
2013-01-22 05:51:00,48.6,-7.6,30.03,North,354,10.0,11.0,9,0.00,,,0.00,LWC V2.11 B50,2013-01-22 12:51:00,
2013-01-22 06:01:00,48.3,-3.7,30.02,West,261,11.0,18.0,11,0.00,,,0.00,LWC V2.11 B50,2013-01-22 13:01:00,
2013-01-22 06:06:00,48.9,-7.4,30.02,WNW,296,13.0,19.0,9,0.00,,,0.00,LWC V2.11 B50,2013-01-22 13:06:00,
2013-01-22 06:11:00,49.2,-5.0,30.02,WSW,239,3.0,5.0,10,0.00,,,0.00,LWC V2.11 B50,2013-01-22 13:11:00,
2013-01-22 06:16:00,46.1,6.2,30.05,NNE,20,4.0,6.0,19,0.00,,,0.00,LWC V2.11 B50,2013-01-22 13:16:00,
2013-01-22 06:21:00,41.3,7.3,30.05,NNE,14,5.0,6.0,24,0.00,,,0.00,LWC V2.11 B50,2013-01-22 13:21:00,
2013-01-22 06:31:00,36.0,5.3,30.11,South,184,1.0,2.0,27,0.00,,,0.00,LWC V2.11 B50,2013-01-22 13:31:00,
2013-01-22 06:36:00,34.4,4.7,30.11,SW,227,11.0,11.0,28,0.00,,,0.00,LWC V2.11 B50,2013-01-22 13:36:00,
2013-01-22 06:41:00,35.3,-5.1,30.11,West,265,2.0,7.0,17,0.00,,,0.00,LWC V2.11 B50,2013-01-22 13:41:00,
2013-01-22 06:46:00,35.3,8.4,30.12,ESE,112,8.0,11.0,32,0.00,,,0.00,LWC V2.11 B50,2013-01-22 13:46:00,
2013-01-22 06:56:00,30.7,10.9,30.12,NW,325,7.0,7.0,43,0.00,,,0.00,LWC V2.11 B50,2013-01-22 13:56:00,
2013-01-22 07:11:00,28.2,11.1,30.16,NE,56,0.0,1.0,48,0.00,,,0.00,LWC V2.11 B50,2013-01-22 14:11:00,
2013-01-22 07:16:00,27.8,10.7,30.19,SSE,167,0.0,6.0,48,0.00,,,0.00,LWC V2.11 B50,2013-01-22 14:16:00,
2013-01-22 07:36:00,28.2,10.6,30.20,NNE,31,6.0,6.0,47,0.00,,,0.00,LWC V2.11 B50,2013-01-22 14:36:00,
2013-01-22 07:51:00,30.0,11.8,30.19,NNE,16,0.0,2.0,46,0.00,,,0.00,LWC V2.11 B50,2013-01-22 14:51:00,
2013-01-22 08:01:00,30.1,12.3,30.20,NNE,16,3.0,5.0,47,0.00,,,0.00,LWC V2.11 B50,2013-01-22 15:01:00,
2013-01-22 08:06:00,30.3,12.0,30.20,NNW,343,5.0,6.0,46,0.00,,,0.00,LWC V2.11 B50,2013-01-22 15:06:00,
2013-01-22 08:21:00,32.1,9.4,30.16,South,179,13.0,16.0,38,0.00,,,0.00,LWC V2.11 B50,2013-01-22 15:21:00,
2013-01-22 08:31:00,32.2,12.2,30.16,SSW,205,5.0,8.0,43,0.00,,,0.00,LWC V2.11 B50,2013-01-22 15:31:00,
2013-01-22 08:41:00,32.7,12.2,30.16,East,97,4.0,4.0,42,0.00,,,0.00,LWC V2.11 B50,2013-01-22 15:41:00,
2013-01-22 08:46:00,33.1,13.1,30.16,ESE,107,6.0,6.0,43,0.00,,,0.00,LWC V2.11 B50,2013-01-22 15:46:00,
2013-01-22 08:56:00,34.0,12.2,30.16,ESE,102,2.0,3.0,40,0.00,,,0.00,LWC V2.11 B50,2013-01-22 15:56:00,
2013-01-22 09:01:00,34.6,12.2,30.15,ESE,102,2.0,3.0,39,0.00,,,0.00,LWC V2.11 B50,2013-01-22 16:01:00,
2013-01-22 09:06:00,35.3,11.0,30.15,ESE,102,0.0,0.0,36,0.00,,,0.00,LWC V2.11 B50,2013-01-22 16:06:00,
2013-01-22 09:16:00,37.3,9.5,30.13,ENE,69,3.0,4.0,31,0.00,,,0.00,LWC V2.11 B50,2013-01-22 16:16:00,
2013-01-22 09:21:00,38.2,8.0,30.13,NNE,13,3.0,5.0,28,0.00,,,0.00,LWC V2.11 B50,2013-01-22 16:21:00,
2013-01-22 09:31:00,39.6,6.7,30.13,North,7,1.0,5.0,25,0.00,,,0.00,LWC V2.11 B50,2013-01-22 16:31:00,
2013-01-22 09:41:00,41.2,6.2,30.13,SE,126,1.0,4.0,23,0.00,,,0.00,LWC V2.11 B50,2013-01-22 16:41:00,
2013-01-22 09:46:00,42.6,5.4,30.11,North,10,1.0,1.0,21,0.00,,,0.00,LWC V2.11 B50,2013-01-22 16:46:00,
2013-01-22 09:51:00,43.8,6.4,30.11,West,270,3.0,6.0,21,0.00,,,0.00,LWC V2.11 B50,2013-01-22 16:51:00,
2013-01-22 10:01:00,46.0,3.7,30.08,SW,232,1.0,6.0,17,0.00,,,0.00,LWC V2.11 B50,2013-01-22 17:01:00,
2013-01-22 10:06:00,46.7,4.2,30.08,SW,226,5.0,5.0,17,0.00,,,0.00,LWC V2.11 B50,2013-01-22 17:06:00,
2013-01-22 10:11:00,47.7,2.4,30.08,West,261,2.0,3.0,15,0.00,,,0.00,LWC V2.11 B50,2013-01-22 17:11:00,
2013-01-22 10:21:00,49.4,8.9,30.06,NNE,31,5.0,8.0,19,0.00,,,0.00,LWC V2.11 B50,2013-01-22 17:21:00,
2013-01-22 10:31:00,49.2,12.0,30.06,NNE,23,0.0,2.0,22,0.00,,,0.00,LWC V2.11 B50,2013-01-22 17:31:00,
2013-01-22 10:41:00,49.8,12.5,30.06,North,3,5.0,5.0,22,0.00,,,0.00,LWC V2.11 B50,2013-01-22 17:41:00,
2013-01-22 10:46:00,50.2,12.8,30.05,North,3,1.0,1.0,22,0.00,,,0.00,LWC V2.11 B50,2013-01-22 17:46:00,
2013-01-22 10:51:00,50.5,10.9,30.05,ESE,120,0.0,1.0,20,0.00,,,0.00,LWC V2.11 B50,2013-01-22 17:51:00,
2013-01-22 11:06:00,51.3,10.5,30.05,NNE,23,7.0,7.0,19,0.00,,,0.00,LWC V2.11 B50,2013-01-22 18:06:00,
2013-01-22 11:16:00,51.6,10.7,30.03,North,359,6.0,8.0,19,0.00,,,0.00,LWC V2.11 B50,2013-01-22 18:16:00,
2013-01-22 11:26:00,51.3,-99.9,30.03,North,0,12.0,13.0,-999,0.00,,,0.00,LWC V2.11 B50,2013-01-22 18:26:00,
2013-01-22 11:36:00,51.6,11.9,30.04,NNW,346,10.0,10.0,20,0.00,,,0.00,LWC V2.11 B50,2013-01-22 18:36:00,
2013-01-22 11:41:00,51.9,12.1,30.04,NNE,21,6.0,12.0,20,0.00,,,0.00,LWC V2.11 B50,2013-01-22 18:41:00,
2013-01-22 11:51:00,51.7,11.9,30.04,North,11,5.0,11.0,20,0.00,,,0.00,LWC V2.11 B50,2013-01-22 18:51:00,
2013-01-22 11:56:00,51.7,10.8,30.04,North,8,6.0,14.0,19,0.00,,,0.00,LWC V2.11 B50,2013-01-22 18:56:00,
2013-01-22 12:06:00,51.9,9.8,30.04,North,6,4.0,12.0,18,0.00,,,0.00,LWC V2.11 B50,2013-01-22 19:06:00,
2013-01-22 12:11:00,52.0,9.8,30.04,North,4,2.0,7.0,18,0.00,,,0.00,LWC V2.11 B50,2013-01-22 19:11:00,
2013-01-22 12:21:00,52.9,8.0,30.05,East,85,1.0,3.0,16,0.00,,,0.00,LWC V2.11 B50,2013-01-22 19:21:00,
2013-01-22 12:26:00,53.8,8.7,30.05,NE,47,0.0,3.0,16,0.00,,,0.00,LWC V2.11 B50,2013-01-22 19:26:00,
2013-01-22 12:31:00,54.4,7.7,30.03,NNE,18,1.0,5.0,15,0.00,,,0.00,LWC V2.11 B50,2013-01-22 19:31:00,
2013-01-22 12:41:00,55.0,6.7,30.03,NE,45,0.0,3.0,14,0.00,,,0.00,LWC V2.11 B50,2013-01-22 19:41:00,
2013-01-22 12:46:00,55.3,8.5,30.03,ESE,110,0.0,2.0,15,0.00,,,0.00,LWC V2.11 B50,2013-01-22 19:46:00,
2013-01-22 12:51:00,55.6,5.6,30.03,SSE,167,0.0,0.0,13,0.00,,,0.00,LWC V2.11 B50,2013-01-22 19:51:00,
2013-01-22 12:56:00,55.9,5.8,30.03,NE,37,4.0,5.0,13,0.00,,,0.00,LWC V2.11 B50,2013-01-22 19:56:00,
2013-01-22 13:01:00,56.0,7.5,30.00,NNE,16,0.0,2.0,14,0.00,,,0.00,LWC V2.11 B50,2013-01-22 20:01:00,
2013-01-22 13:06:00,56.3,6.1,30.00,East,100,1.0,5.0,13,0.00,,,0.00,LWC V2.11 B50,2013-01-22 20:06:00,
2013-01-22 13:16:00,56.6,8.0,29.99,ESE,112,0.0,1.0,14,0.00,,,0.00,LWC V2.11 B50,2013-01-22 20:16:00,
2013-01-22 13:21:00,56.9,6.6,29.99,ESE,123,3.0,5.0,13,0.00,,,0.00,LWC V2.11 B50,2013-01-22 20:21:00,
2013-01-22 13:31:00,57.6,5.4,29.96,SE,130,1.0,1.0,12,0.00,,,0.00,LWC V2.11 B50,2013-01-22 20:31:00,
2013-01-22 13:46:00,60.2,-4.1,29.94,NNW,344,6.0,11.0,7,0.00,,,0.00,LWC V2.11 B50,2013-01-22 20:46:00,
2013-01-22 13:51:00,60.2,3.5,29.94,North,0,6.0,8.0,10,0.00,,,0.00,LWC V2.11 B50,2013-01-22 20:51:00,
2013-01-22 14:01:00,60.4,1.3,29.94,West,274,1.0,1.0,9,0.00,,,0.00,LWC V2.11 B50,2013-01-22 21:01:00,
2013-01-22 14:06:00,60.7,-3.7,29.94,SW,223,3.0,6.0,7,0.00,,,0.00,LWC V2.11 B50,2013-01-22 21:06:00,
2013-01-22 14:11:00,61.5,-0.3,29.94,SW,216,5.0,6.0,8,0.00,,,0.00,LWC V2.11 B50,2013-01-22 21:11:00,
2013-01-22 14:16:00,62.0,-6.0,29.91,NNW,329,1.0,7.0,6,0.00,,,0.00,LWC V2.11 B50,2013-01-22 21:16:00,
2013-01-22 14:21:00,62.3,-9.5,29.91,NNW,340,0.0,7.0,5,0.00,,,0.00,LWC V2.11 B50,2013-01-22 21:21:00,
2013-01-22 14:36:00,62.3,5.1,29.92,NE,47,5.0,8.0,10,0.00,,,0.00,LWC V2.11 B50,2013-01-22 21:36:00,
2013-01-22 14:41:00,61.8,6.8,29.92,NNE,21,4.0,6.0,11,0.00,,,0.00,LWC V2.11 B50,2013-01-22 21:41:00,
2013-01-22 14:46:00,61.0,9.8,29.93,NNE,20,10.0,11.0,13,0.00,,,0.00,LWC V2.11 B50,2013-01-22 21:46:00,
2013-01-22 14:51:00,60.4,11.0,29.93,NNE,30,6.0,7.0,14,0.00,,,0.00,LWC V2.11 B50,2013-01-22 21:51:00,
2013-01-22 15:01:00,59.6,8.7,29.95,NNE,14,2.0,7.0,13,0.00,,,0.00,LWC V2.11 B50,2013-01-22 22:01:00,
2013-01-22 15:06:00,59.5,6.9,29.95,NNE,23,6.0,6.0,12,0.00,,,0.00,LWC V2.11 B50,2013-01-22 22:06:00,
2013-01-22 15:11:00,59.3,4.8,29.95,NE,40,6.0,7.0,11,0.00,,,0.00,LWC V2.11 B50,2013-01-22 22:11:00,
2013-01-22 15:21:00,59.3,4.8,29.97,North,11,3.0,6.0,11,0.00,,,0.00,LWC V2.11 B50,2013-01-22 22:21:00,
2013-01-22 15:26:00,59.3,4.8,29.97,NNE,13,3.0,8.0,11,0.00,,,0.00,LWC V2.11 B50,2013-01-22 22:26:00,
2013-01-22 15:36:00,59.2,4.7,29.98,North,11,5.0,6.0,11,0.00,,,0.00,LWC V2.11 B50,2013-01-22 22:36:00,
2013-01-22 15:41:00,59.0,4.6,29.98,NNE,16,3.0,3.0,11,0.00,,,0.00,LWC V2.11 B50,2013-01-22 22:41:00,
2013-01-22 15:46:00,58.9,2.5,29.99,North,0,7.0,7.0,10,0.00,,,0.00,LWC V2.11 B50,2013-01-22 22:46:00,
2013-01-22 15:51:00,58.6,4.3,29.99,North,4,0.0,3.0,11,0.00,,,0.00,LWC V2.11 B50,2013-01-22 22:51:00,
2013-01-22 16:01:00,58.1,3.9,30.00,NE,34,2.0,2.0,11,0.00,,,0.00,LWC V2.11 B50,2013-01-22 23:01:00,
2013-01-22 16:06:00,58.1,3.9,30.00,NE,34,0.0,0.0,11,0.00,,,0.00,LWC V2.11 B50,2013-01-22 23:06:00,
2013-01-22 16:21:00,57.5,7.1,30.01,East,99,6.0,6.0,13,0.00,,,0.00,LWC V2.11 B50,2013-01-22 23:21:00,
2013-01-22 16:26:00,57.2,6.8,30.01,ESE,106,5.0,6.0,13,0.00,,,0.00,LWC V2.11 B50,2013-01-22 23:26:00,
2013-01-22 16:36:00,56.2,6.0,30.01,East,97,1.0,4.0,13,0.00,,,0.00,LWC V2.11 B50,2013-01-22 23:36:00,
2013-01-22 16:41:00,55.7,8.8,30.01,SSW,196,3.0,5.0,15,0.00,,,0.00,LWC V2.11 B50,2013-01-22 23:41:00,
2013-01-22 16:46:00,55.1,8.3,30.02,SSE,152,7.0,8.0,15,0.00,,,0.00,LWC V2.11 B50,2013-01-22 23:46:00,
2013-01-22 16:51:00,54.4,7.7,30.02,SW,236,0.0,4.0,15,0.00,,,0.00,LWC V2.11 B50,2013-01-22 23:51:00,
2013-01-22 17:01:00,53.2,6.8,30.03,South,186,2.0,3.0,15,0.00,,,0.00,LWC V2.11 B50,2013-01-23 00:01:00,
2013-01-22 17:11:00,51.9,7.1,30.03,South,169,6.0,7.0,16,0.00,,,0.00,LWC V2.11 B50,2013-01-23 00:11:00,
2013-01-22 17:21:00,49.9,6.9,30.05,SSE,157,3.0,3.0,17,0.00,,,0.00,LWC V2.11 B50,2013-01-23 00:21:00,
2013-01-22 17:31:00,48.8,4.6,30.07,West,272,3.0,4.0,16,0.00,,,0.00,LWC V2.11 B50,2013-01-23 00:31:00,
2013-01-22 17:41:00,48.2,5.5,30.07,North,349,3.0,3.0,17,0.00,,,0.00,LWC V2.11 B50,2013-01-23 00:41:00,
2013-01-22 17:46:00,48.0,6.5,30.09,North,352,0.0,3.0,18,0.00,,,0.00,LWC V2.11 B50,2013-01-23 00:46:00,
2013-01-22 17:56:00,47.0,5.7,30.09,NNW,347,2.0,5.0,18,0.00,,,0.00,LWC V2.11 B50,2013-01-23 00:56:00,
2013-01-22 18:06:00,44.6,7.1,30.10,WSW,256,2.0,3.0,21,0.00,,,0.00,LWC V2.11 B50,2013-01-23 01:06:00,
2013-01-22 18:11:00,43.1,6.9,30.10,NW,318,2.0,3.0,22,0.00,,,0.00,LWC V2.11 B50,2013-01-23 01:11:00,
2013-01-22 18:16:00,42.3,7.2,30.24,NW,313,2.0,2.0,23,0.00,,,0.00,LWC V2.11 B50,2013-01-23 01:16:00,
2013-01-22 18:21:00,41.2,7.2,30.24,West,271,3.0,5.0,24,0.00,,,0.00,LWC V2.11 B50,2013-01-23 01:21:00,
2013-01-22 18:36:00,40.3,8.2,30.25,ENE,75,0.0,2.0,26,0.00,,,0.00,LWC V2.11 B50,2013-01-23 01:36:00,
2013-01-22 18:51:00,39.8,7.7,30.25,SSE,158,0.0,6.0,26,0.00,,,0.00,LWC V2.11 B50,2013-01-23 01:51:00,
2013-01-22 18:56:00,38.9,7.8,30.25,North,3,2.0,3.0,27,0.00,,,0.00,LWC V2.11 B50,2013-01-23 01:56:00,
2013-01-22 19:01:00,38.6,7.5,30.28,North,0,0.0,1.0,27,0.00,,,0.00,LWC V2.11 B50,2013-01-23 02:01:00,
2013-01-22 19:11:00,37.9,7.7,30.28,North,0,1.0,1.0,28,0.00,,,0.00,LWC V2.11 B50,2013-01-23 02:11:00,
2013-01-22 19:16:00,37.5,7.4,30.28,North,0,2.0,2.0,28,0.00,,,0.00,LWC V2.11 B50,2013-01-23 02:16:00,
2013-01-22 19:26:00,35.9,8.2,30.28,North,0,0.0,0.0,31,0.00,,,0.00,LWC V2.11 B50,2013-01-23 02:26:00,
2013-01-22 19:36:00,34.6,9.8,30.29,North,0,1.0,2.0,35,0.00,,,0.00,LWC V2.11 B50,2013-01-23 02:36:00,
2013-01-22 19:46:00,34.3,9.5,30.31,North,0,0.0,0.0,35,0.00,,,0.00,LWC V2.11 B50,2013-01-23 02:46:00,
2013-01-22 19:56:00,33.1,9.7,30.31,North,359,0.0,2.0,37,0.00,,,0.00,LWC V2.11 B50,2013-01-23 02:56:00,
2013-01-22 20:01:00,32.4,8.5,30.33,WSW,253,2.0,3.0,36,0.00,,,0.00,LWC V2.11 B50,2013-01-23 03:01:00,
2013-01-22 20:11:00,31.5,8.3,30.33,WSW,253,0.0,1.0,37,0.00,,,0.00,LWC V2.11 B50,2013-01-23 03:11:00,
2013-01-22 20:16:00,31.0,7.8,30.32,SSW,210,3.0,3.0,37,0.00,,,0.00,LWC V2.11 B50,2013-01-23 03:16:00,
2013-01-22 20:26:00,30.6,6.9,30.32,SW,215,2.0,6.0,36,0.00,,,0.00,LWC V2.11 B50,2013-01-23 03:26:00,
2013-01-22 20:31:00,30.4,6.7,30.30,SW,220,7.0,7.0,36,0.00,,,0.00,LWC V2.11 B50,2013-01-23 03:31:00,
2013-01-22 20:41:00,30.1,7.0,30.30,SW,229,1.0,6.0,37,0.00,,,0.00,LWC V2.11 B50,2013-01-23 03:41:00,
2013-01-22 20:46:00,29.8,6.7,30.30,ESE,112,2.0,3.0,37,0.00,,,0.00,LWC V2.11 B50,2013-01-23 03:46:00,
2013-01-22 20:51:00,29.8,6.1,30.30,ESE,112,0.0,0.0,36,0.00,,,0.00,LWC V2.11 B50,2013-01-23 03:51:00,
2013-01-22 21:06:00,29.1,5.5,30.30,South,175,2.0,3.0,36,0.00,,,0.00,LWC V2.11 B50,2013-01-23 04:06:00,
2013-01-22 21:11:00,28.8,5.2,30.30,South,175,1.0,1.0,36,0.00,,,0.00,LWC V2.11 B50,2013-01-23 04:11:00,
2013-01-22 21:26:00,29.5,5.3,30.24,North,7,1.0,2.0,35,0.00,,,0.00,LWC V2.11 B50,2013-01-23 04:26:00,
2013-01-22 21:31:00,30.1,4.5,30.24,North,7,0.0,2.0,33,0.00,,,0.00,LWC V2.11 B50,2013-01-23 04:31:00,
2013-01-22 21:36:00,30.1,5.8,30.24,SW,230,9.0,13.0,35,0.00,,,0.00,LWC V2.11 B50,2013-01-23 04:36:00,
2013-01-22 21:41:00,30.1,3.8,30.24,NW,326,1.0,1.0,32,0.00,,,0.00,LWC V2.11 B50,2013-01-23 04:41:00,
2013-01-22 21:56:00,29.7,4.2,30.23,WSW,246,1.0,1.0,33,0.00,,,0.00,LWC V2.11 B50,2013-01-23 04:56:00,
2013-01-22 22:01:00,29.4,3.9,30.23,SSW,200,0.0,1.0,33,0.00,,,0.00,LWC V2.11 B50,2013-01-23 05:01:00,
2013-01-22 22:06:00,29.1,4.3,30.23,SW,222,6.0,7.0,34,0.00,,,0.00,LWC V2.11 B50,2013-01-23 05:06:00,
2013-01-22 22:16:00,28.2,5.3,30.21,SSE,154,0.0,0.0,37,0.00,,,0.00,LWC V2.11 B50,2013-01-23 05:16:00,
2013-01-22 22:21:00,27.9,5.0,30.21,SW,222,0.0,0.0,37,0.00,,,0.00,LWC V2.11 B50,2013-01-23 05:21:00,
2013-01-22 22:26:00,27.8,5.0,30.21,North,350,0.0,0.0,37,0.00,,,0.00,LWC V2.11 B50,2013-01-23 05:26:00,
2013-01-22 22:31:00,27.6,5.9,30.22,NW,326,1.0,2.0,39,0.00,,,0.00,LWC V2.11 B50,2013-01-23 05:31:00,
2013-01-22 22:41:00,27.6,5.9,30.22,North,0,0.0,1.0,39,0.00,,,0.00,LWC V2.11 B50,2013-01-23 05:41:00,
2013-01-22 22:51:00,27.3,6.2,30.22,NNE,21,0.0,0.0,40,0.00,,,0.00,LWC V2.11 B50,2013-01-23 05:51:00,
2013-01-22 22:56:00,27.3,5.6,30.22,East,79,2.0,3.0,39,0.00,,,0.00,LWC V2.11 B50,2013-01-23 05:56:00,
2013-01-22 23:01:00,27.9,6.2,30.22,North,6,0.0,0.0,39,0.00,,,0.00,LWC V2.11 B50,2013-01-23 06:01:00,
2013-01-22 23:11:00,28.8,5.8,30.22,North,0,0.0,0.0,37,0.00,,,0.00,LWC V2.11 B50,2013-01-23 06:11:00,
2013-01-22 23:16:00,29.0,6.6,30.21,North,357,0.0,1.0,38,0.00,,,0.00,LWC V2.11 B50,2013-01-23 06:16:00,
2013-01-22 23:26:00,29.8,6.1,30.21,North,3,5.0,11.0,36,0.00,,,0.00,LWC V2.11 B50,2013-01-23 06:26:00,
2013-01-22 23:36:00,31.2,6.8,30.20,NE,44,2.0,2.0,35,0.00,,,0.00,LWC V2.11 B50,2013-01-23 06:36:00,
2013-01-22 23:41:00,31.8,5.3,30.20,NNW,343,1.0,2.0,32,0.00,,,0.00,LWC V2.11 B50,2013-01-23 06:41:00,
2013-01-22 23:51:00,33.1,6.5,30.18,North,0,1.0,6.0,32,0.00,,,0.00,LWC V2.11 B50,2013-01-23 06:51:00,
2013-01-22 23:56:00,33.1,5.8,30.18,SSW,199,0.0,1.0,31,0.00,,,0.00,LWC V2.11 B50,2013-01-23 06:56:00,